createdAt,value
2018-05-15T00:00:13.699Z,1010.15
2018-05-15T00:01:15.093Z,1010.15
2018-05-15T00:02:16.489Z,1010.19
2018-05-15T00:03:17.882Z,1010.21
2018-05-15T00:04:19.264Z,1010.20
2018-05-15T00:05:20.653Z,1010.19
2018-05-15T00:06:22.038Z,1010.14
2018-05-15T00:07:23.431Z,1010.19
2018-05-15T00:08:24.815Z,1010.19
2018-05-15T00:09:26.198Z,1010.17
2018-05-15T00:10:27.585Z,1010.16
2018-05-15T00:11:28.973Z,1010.20
2018-05-15T00:12:31.098Z,1010.22
2018-05-15T00:13:32.484Z,1010.15
2018-05-15T00:14:33.866Z,1010.16
2018-05-15T00:15:35.261Z,1010.14
2018-05-15T00:16:36.648Z,1010.12
2018-05-15T00:17:38.026Z,1010.12
2018-05-15T00:18:39.412Z,1010.09
2018-05-15T00:19:41.545Z,1010.12
2018-05-15T00:20:42.112Z,1010.08
2018-05-15T00:21:43.505Z,1010.10
2018-05-15T00:22:44.885Z,1010.10
2018-05-15T00:23:46.278Z,1010.09
2018-05-15T00:24:47.673Z,1010.04
2018-05-15T00:25:49.062Z,1010.04
2018-05-15T00:26:50.451Z,1010.02
2018-05-15T00:27:51.849Z,1009.98
2018-05-15T00:28:53.253Z,1010.03
2018-05-15T00:29:54.653Z,1010.00
2018-05-15T00:30:56.030Z,1010.01
2018-05-15T00:31:57.437Z,1010.03
2018-05-15T00:32:58.803Z,1010.02
2018-05-15T00:34:00.235Z,1010.04
2018-05-15T00:35:01.625Z,1010.04
2018-05-15T00:36:03.007Z,1010.03
2018-05-15T00:37:04.412Z,1010.06
2018-05-15T00:38:05.811Z,1010.04
2018-05-15T00:39:07.209Z,1010.06
2018-05-15T00:40:08.611Z,1010.07
2018-05-15T00:41:10.022Z,1010.04
2018-05-15T00:42:11.420Z,1010.05
2018-05-15T00:43:12.863Z,1010.08
2018-05-15T00:44:14.313Z,1010.09
2018-05-15T00:45:16.229Z,1010.11
2018-05-15T00:46:17.677Z,1010.13
2018-05-15T00:47:19.071Z,1010.14
2018-05-15T00:48:20.472Z,1010.11
2018-05-15T00:49:21.874Z,1010.09
2018-05-15T00:50:23.268Z,1010.11
2018-05-15T00:51:24.673Z,1010.07
2018-05-15T00:52:26.064Z,1010.09
2018-05-15T00:53:27.498Z,1010.11
2018-05-15T00:54:28.914Z,1010.09
2018-05-15T00:55:30.308Z,1010.06
2018-05-15T00:56:31.700Z,1010.07
2018-05-15T00:57:33.104Z,1010.04
2018-05-15T00:58:34.482Z,1010.03
2018-05-15T00:59:35.880Z,1010.09
2018-05-15T01:00:37.275Z,1010.07
2018-05-15T01:01:38.678Z,1010.06
2018-05-15T01:02:40.063Z,1010.09
2018-05-15T01:03:41.451Z,1010.08
2018-05-15T01:04:42.837Z,1010.08
2018-05-15T01:05:44.241Z,1010.15
2018-05-15T01:06:45.633Z,1010.13
2018-05-15T01:07:47.029Z,1010.15
2018-05-15T01:08:48.436Z,1010.09
2018-05-15T01:09:50.679Z,1010.10
2018-05-15T01:10:52.062Z,1010.08
2018-05-15T01:11:53.449Z,1010.05
2018-05-15T01:12:54.841Z,1010.02
2018-05-15T01:13:56.241Z,1009.96
2018-05-15T01:14:58.547Z,1010.00
2018-05-15T01:15:59.953Z,1009.98
2018-05-15T01:17:01.329Z,1009.94
2018-05-15T01:18:02.715Z,1009.90
2018-05-15T01:19:04.111Z,1009.83
2018-05-15T01:20:05.498Z,1009.80
2018-05-15T01:21:06.882Z,1009.81
2018-05-15T01:22:08.269Z,1009.81
2018-05-15T01:23:09.655Z,1009.81
2018-05-15T01:24:11.045Z,1009.83
2018-05-15T01:25:12.433Z,1009.91
2018-05-15T01:26:13.811Z,1009.95
2018-05-15T01:27:15.198Z,1009.92
2018-05-15T01:28:17.059Z,1009.94
2018-05-15T01:29:17.905Z,1009.91
2018-05-15T01:30:19.797Z,1009.90
2018-05-15T01:31:21.177Z,1009.88
2018-05-15T01:32:22.574Z,1009.94
2018-05-15T01:33:23.957Z,1009.98
2018-05-15T01:34:25.340Z,1010.00
2018-05-15T01:35:26.735Z,1010.01
2018-05-15T01:36:28.849Z,1010.04
2018-05-15T01:37:30.230Z,1010.03
2018-05-15T01:38:31.612Z,1010.04
2018-05-15T01:39:33.001Z,1010.03
2018-05-15T01:40:34.397Z,1010.01
2018-05-15T01:41:35.767Z,1010.04
2018-05-15T01:42:37.173Z,1010.02
2018-05-15T01:43:38.564Z,1010.01
2018-05-15T01:44:39.945Z,1009.99
2018-05-15T01:45:41.329Z,1010.03
2018-05-15T01:46:42.717Z,1009.97
2018-05-15T01:47:44.123Z,1009.99
2018-05-15T01:48:45.486Z,1009.98
2018-05-15T01:49:46.859Z,1009.97
2018-05-15T01:50:48.252Z,1010.02
2018-05-15T01:51:49.635Z,1010.09
2018-05-15T01:52:51.015Z,1010.07
2018-05-15T01:53:52.401Z,1010.04
2018-05-15T01:54:53.793Z,1009.99
2018-05-15T01:55:55.163Z,1009.97
2018-05-15T01:56:56.553Z,1010.00
2018-05-15T01:57:57.973Z,1010.01
2018-05-15T01:58:59.351Z,1010.01
2018-05-15T02:00:00.738Z,1010.05
2018-05-15T02:01:02.127Z,1010.05
2018-05-15T02:02:03.500Z,1010.05
2018-05-15T02:03:04.892Z,1010.05
2018-05-15T02:04:06.285Z,1010.02
2018-05-15T02:05:07.656Z,1010.00
2018-05-15T02:06:09.037Z,1010.00
2018-05-15T02:07:10.419Z,1010.00
2018-05-15T02:08:11.808Z,1010.00
2018-05-15T02:09:13.189Z,1010.00
2018-05-15T02:10:14.591Z,1009.99
2018-05-15T02:11:15.967Z,1009.97
2018-05-15T02:12:17.374Z,1009.98
2018-05-15T02:13:18.743Z,1010.00
2018-05-15T02:14:20.118Z,1009.96
2018-05-15T02:15:21.512Z,1009.96
2018-05-15T02:16:22.910Z,1009.99
2018-05-15T02:17:24.306Z,1009.97
2018-05-15T02:18:26.541Z,1009.96
2018-05-15T02:19:27.952Z,1009.96
2018-05-15T02:20:29.351Z,1009.96
2018-05-15T02:21:30.739Z,1009.95
2018-05-15T02:22:32.127Z,1009.97
2018-05-15T02:23:33.528Z,1009.98
2018-05-15T02:24:34.950Z,1009.92
2018-05-15T02:25:36.335Z,1009.96
2018-05-15T02:26:37.712Z,1009.94
2018-05-15T02:27:39.120Z,1009.94
2018-05-15T02:28:40.505Z,1009.92
2018-05-15T02:29:41.889Z,1009.91
2018-05-15T02:30:43.261Z,1009.90
2018-05-15T02:31:44.654Z,1009.91
2018-05-15T02:32:46.061Z,1009.89
2018-05-15T02:33:48.073Z,1009.92
2018-05-15T02:34:48.785Z,1009.92
2018-05-15T02:35:50.181Z,1009.92
2018-05-15T02:36:51.584Z,1009.86
2018-05-15T02:37:52.972Z,1009.87
2018-05-15T02:38:54.372Z,1009.85
2018-05-15T02:39:55.768Z,1009.83
2018-05-15T02:40:57.156Z,1009.80
2018-05-15T02:41:58.548Z,1009.78
2018-05-15T02:42:59.942Z,1009.79
2018-05-15T02:44:01.321Z,1009.79
2018-05-15T02:45:02.728Z,1009.78
2018-05-15T02:46:04.109Z,1009.79
2018-05-15T02:47:05.494Z,1009.79
2018-05-15T02:48:06.939Z,1009.77
2018-05-15T02:49:08.269Z,1009.79
2018-05-15T02:50:10.570Z,1009.77
2018-05-15T02:51:11.958Z,1009.75
2018-05-15T02:52:13.364Z,1009.82
2018-05-15T02:53:14.748Z,1009.75
2018-05-15T02:54:16.129Z,1009.76
2018-05-15T02:55:17.521Z,1009.70
2018-05-15T02:56:18.915Z,1009.71
2018-05-15T02:57:20.307Z,1009.70
2018-05-15T02:58:21.701Z,1009.72
2018-05-15T02:59:23.076Z,1009.73
2018-05-15T03:00:24.471Z,1009.76
2018-05-15T03:01:25.864Z,1009.72
2018-05-15T03:02:27.241Z,1009.73
2018-05-15T03:03:29.384Z,1009.69
2018-05-15T03:04:30.772Z,1009.67
2018-05-15T03:05:32.152Z,1009.64
2018-05-15T03:06:33.537Z,1009.62
2018-05-15T03:07:34.945Z,1009.61
2018-05-15T03:08:36.308Z,1009.61
2018-05-15T03:09:37.689Z,1009.63
2018-05-15T03:10:39.051Z,1009.64
2018-05-15T03:11:40.490Z,1009.65
2018-05-15T03:12:41.819Z,1009.60
2018-05-15T03:13:43.200Z,1009.68
2018-05-15T03:14:44.599Z,1009.68
2018-05-15T03:15:45.990Z,1009.69
2018-05-15T03:16:47.366Z,1009.62
2018-05-15T03:17:48.763Z,1009.66
2018-05-15T03:18:50.144Z,1009.64
2018-05-15T03:19:51.529Z,1009.61
2018-05-15T03:20:52.906Z,1009.59
2018-05-15T03:21:54.301Z,1009.57
2018-05-15T03:22:55.687Z,1009.60
2018-05-15T03:23:57.090Z,1009.61
2018-05-15T03:24:58.477Z,1009.66
2018-05-15T03:25:59.867Z,1009.65
2018-05-15T03:27:01.251Z,1009.64
2018-05-15T03:28:02.643Z,1009.64
2018-05-15T03:29:04.035Z,1009.67
2018-05-15T03:30:05.428Z,1009.67
2018-05-15T03:31:06.824Z,1009.65
2018-05-15T03:32:08.206Z,1009.65
2018-05-15T03:33:09.596Z,1009.66
2018-05-15T03:34:10.984Z,1009.68
2018-05-15T03:35:12.390Z,1009.65
2018-05-15T03:36:13.771Z,1009.68
2018-05-15T03:37:15.174Z,1009.69
2018-05-15T03:38:16.575Z,1009.72
2018-05-15T03:39:17.961Z,1009.75
2018-05-15T03:40:19.354Z,1009.74
2018-05-15T03:41:20.738Z,1009.76
2018-05-15T03:42:22.120Z,1009.76
2018-05-15T03:43:23.496Z,1009.74
2018-05-15T03:44:24.896Z,1009.75
2018-05-15T03:45:26.276Z,1009.78
2018-05-15T03:46:27.668Z,1009.77
2018-05-15T03:47:29.053Z,1009.74
2018-05-15T03:48:30.455Z,1009.79
2018-05-15T03:49:31.839Z,1009.75
2018-05-15T03:50:33.233Z,1009.74
2018-05-15T03:51:34.617Z,1009.67
2018-05-15T03:52:36.014Z,1009.72
2018-05-15T03:53:37.401Z,1009.69
2018-05-15T03:54:38.794Z,1009.74
2018-05-15T03:55:40.182Z,1009.70
2018-05-15T03:56:41.587Z,1009.76
2018-05-15T03:57:42.971Z,1009.76
2018-05-15T03:58:44.362Z,1009.83
2018-05-15T03:59:45.752Z,1009.80
2018-05-15T04:00:47.132Z,1009.84
2018-05-15T04:01:48.513Z,1009.81
2018-05-15T04:02:49.909Z,1009.87
2018-05-15T04:03:51.297Z,1009.89
2018-05-15T04:04:52.685Z,1009.88
2018-05-15T04:05:54.067Z,1009.87
2018-05-15T04:06:55.452Z,1009.91
2018-05-15T04:07:56.842Z,1009.91
2018-05-15T04:08:58.230Z,1009.89
2018-05-15T04:09:59.622Z,1009.90
2018-05-15T04:11:01.160Z,1009.91
2018-05-15T04:12:02.355Z,1009.89
2018-05-15T04:13:03.737Z,1009.87
2018-05-15T04:14:05.123Z,1009.85
2018-05-15T04:15:06.521Z,1009.88
2018-05-15T04:16:07.911Z,1009.81
2018-05-15T04:17:09.291Z,1009.82
2018-05-15T04:18:10.683Z,1009.82
2018-05-15T04:19:12.072Z,1009.78
2018-05-15T04:20:13.475Z,1009.78
2018-05-15T04:21:14.876Z,1009.77
2018-05-15T04:22:16.276Z,1009.76
2018-05-15T04:23:17.928Z,1009.78
2018-05-15T04:24:19.302Z,1009.80
2018-05-15T04:25:20.689Z,1009.79
2018-05-15T04:26:22.083Z,1009.79
2018-05-15T04:27:23.468Z,1009.81
2018-05-15T04:28:24.878Z,1009.81
2018-05-15T04:29:26.246Z,1009.83
2018-05-15T04:30:27.634Z,1009.86
2018-05-15T04:31:29.022Z,1009.85
2018-05-15T04:32:30.408Z,1009.92
2018-05-15T04:33:31.804Z,1009.89
2018-05-15T04:34:33.192Z,1009.86
2018-05-15T04:35:34.570Z,1009.95
2018-05-15T04:36:35.962Z,1009.91
2018-05-15T04:37:37.354Z,1009.90
2018-05-15T04:38:38.744Z,1009.93
2018-05-15T04:39:40.143Z,1009.98
2018-05-15T04:40:41.525Z,1010.01
2018-05-15T04:41:42.923Z,1010.00
2018-05-15T04:42:44.308Z,1009.97
2018-05-15T04:43:45.817Z,1009.98
2018-05-15T04:44:47.098Z,1009.94
2018-05-15T04:45:48.491Z,1009.97
2018-05-15T04:46:49.887Z,1009.95
2018-05-15T04:47:51.266Z,1009.93
2018-05-15T04:48:52.690Z,1009.92
2018-05-15T04:49:54.075Z,1009.93
2018-05-15T04:50:55.471Z,1009.91
2018-05-15T04:51:56.859Z,1009.96
2018-05-15T04:52:58.253Z,1009.97
2018-05-15T04:54:00.300Z,1009.92
2018-05-15T04:55:01.710Z,1009.97
2018-05-15T04:56:03.102Z,1009.97
2018-05-15T04:57:05.060Z,1009.98
2018-05-15T04:58:06.455Z,1009.94
2018-05-15T04:59:08.381Z,1009.96
2018-05-15T05:00:09.772Z,1009.92
2018-05-15T05:01:11.174Z,1009.83
2018-05-15T05:02:12.566Z,1009.86
2018-05-15T05:03:13.962Z,1009.84
2018-05-15T05:04:15.370Z,1009.81
2018-05-15T05:05:16.772Z,1009.81
2018-05-15T05:06:18.182Z,1009.82
2018-05-15T05:07:19.573Z,1009.82
2018-05-15T05:08:20.969Z,1009.85
2018-05-15T05:09:22.370Z,1009.79
2018-05-15T05:10:23.773Z,1009.79
2018-05-15T05:11:25.174Z,1009.79
2018-05-15T05:12:26.570Z,1009.80
2018-05-15T05:13:27.960Z,1009.80
2018-05-15T05:14:29.363Z,1009.81
2018-05-15T05:15:30.771Z,1009.87
2018-05-15T05:16:32.170Z,1009.85
2018-05-15T05:17:33.598Z,1009.85
2018-05-15T05:18:34.987Z,1009.87
2018-05-15T05:19:36.467Z,1009.88
2018-05-15T05:20:37.868Z,1009.84
2018-05-15T05:21:39.269Z,1009.83
2018-05-15T05:22:40.658Z,1009.90
2018-05-15T05:23:42.076Z,1009.85
2018-05-15T05:24:43.463Z,1009.83
2018-05-15T05:25:44.860Z,1009.84
2018-05-15T05:26:46.247Z,1009.83
2018-05-15T05:27:47.642Z,1009.82
2018-05-15T05:28:49.052Z,1009.89
2018-05-15T05:29:50.443Z,1009.89
2018-05-15T05:30:51.862Z,1009.93
2018-05-15T05:31:53.259Z,1009.96
2018-05-15T05:32:54.670Z,1009.97
2018-05-15T05:33:56.069Z,1009.95
2018-05-15T05:34:57.464Z,1010.02
2018-05-15T05:35:58.856Z,1009.94
2018-05-15T05:37:00.251Z,1009.98
2018-05-15T05:38:01.673Z,1009.96
2018-05-15T05:39:03.073Z,1009.97
2018-05-15T05:40:04.490Z,1009.99
2018-05-15T05:41:05.895Z,1010.03
2018-05-15T05:42:07.300Z,1010.02
2018-05-15T05:43:08.699Z,1010.05
2018-05-15T05:44:10.084Z,1010.03
2018-05-15T05:45:11.485Z,1010.06
2018-05-15T05:46:12.843Z,1010.04
2018-05-15T05:47:14.245Z,1010.08
2018-05-15T05:48:15.639Z,1010.10
2018-05-15T05:49:17.040Z,1010.12
2018-05-15T05:50:18.441Z,1010.10
2018-05-15T05:51:19.833Z,1010.10
2018-05-15T05:52:21.217Z,1010.15
2018-05-15T05:53:22.617Z,1010.03
2018-05-15T05:54:24.006Z,1010.03
2018-05-15T05:55:25.409Z,1010.02
2018-05-15T05:56:26.797Z,1010.02
2018-05-15T05:57:28.189Z,1010.06
2018-05-15T05:58:29.612Z,1010.02
2018-05-15T05:59:31.038Z,1010.04
2018-05-15T06:00:32.438Z,1010.01
2018-05-15T06:01:33.816Z,1010.05
2018-05-15T06:02:35.219Z,1010.04
2018-05-15T06:03:36.660Z,1010.09
2018-05-15T06:04:38.067Z,1010.10
2018-05-15T06:05:39.460Z,1010.05
2018-05-15T06:06:40.853Z,1010.07
2018-05-15T06:07:42.250Z,1010.05
2018-05-15T06:08:43.647Z,1010.09
2018-05-15T06:09:45.039Z,1010.17
2018-05-15T06:10:46.442Z,1010.21
2018-05-15T06:11:47.837Z,1010.17
2018-05-15T06:12:49.234Z,1010.12
2018-05-15T06:13:50.633Z,1010.19
2018-05-15T06:14:52.026Z,1010.45
2018-05-15T06:15:53.438Z,1010.62
2018-05-15T06:16:54.819Z,1010.38
2018-05-15T06:17:56.225Z,1010.40
2018-05-15T06:18:57.611Z,1010.29
2018-05-15T06:19:59.014Z,1010.36
2018-05-15T06:21:00.503Z,1010.34
2018-05-15T06:22:01.780Z,1010.38
2018-05-15T06:23:03.184Z,1010.27
2018-05-15T06:24:04.600Z,1010.19
2018-05-15T06:25:06.004Z,1010.34
2018-05-15T06:26:07.406Z,1010.17
2018-05-15T06:27:08.815Z,1010.34
2018-05-15T06:28:10.213Z,1010.33
2018-05-15T06:29:11.626Z,1010.49
2018-05-15T06:30:13.019Z,1010.43
2018-05-15T06:31:14.435Z,1010.51
2018-05-15T06:32:15.939Z,1010.59
2018-05-15T06:33:17.264Z,1010.55
2018-05-15T06:34:18.664Z,1010.62
2018-05-15T06:35:20.083Z,1010.50
2018-05-15T06:36:21.483Z,1010.40
2018-05-15T06:37:22.887Z,1010.31
2018-05-15T06:38:24.312Z,1010.36
2018-05-15T06:39:25.724Z,1010.36
2018-05-15T06:40:27.124Z,1010.35
2018-05-15T06:41:28.542Z,1010.20
2018-05-15T06:42:29.941Z,1010.29
2018-05-15T06:43:31.357Z,1010.08
2018-05-15T06:44:32.777Z,1010.11
2018-05-15T06:45:34.194Z,1010.08
2018-05-15T06:46:35.620Z,1010.07
2018-05-15T06:47:37.047Z,1010.14
2018-05-15T06:48:38.446Z,1010.06
2018-05-15T06:49:39.852Z,1010.04
2018-05-15T06:50:41.274Z,1010.07
2018-05-15T06:51:42.680Z,1010.11
2018-05-15T06:52:44.085Z,1010.15
2018-05-15T06:53:45.487Z,1010.11
2018-05-15T06:54:46.901Z,1010.05
2018-05-15T06:55:48.299Z,1009.97
2018-05-15T06:56:49.708Z,1009.98
2018-05-15T06:57:51.124Z,1009.93
2018-05-15T06:58:52.540Z,1010.04
2018-05-15T06:59:53.935Z,1010.00
2018-05-15T07:00:55.349Z,1009.92
2018-05-15T07:01:56.746Z,1009.86
2018-05-15T07:02:58.163Z,1009.90
2018-05-15T07:04:00.357Z,1009.92
2018-05-15T07:05:01.771Z,1009.89
2018-05-15T07:06:03.173Z,1009.99
2018-05-15T07:07:04.580Z,1010.04
2018-05-15T07:08:05.992Z,1010.02
2018-05-15T07:09:07.384Z,1010.07
2018-05-15T07:10:08.797Z,1010.04
2018-05-15T07:11:10.195Z,1010.05
2018-05-15T07:12:11.600Z,1010.09
2018-05-15T07:13:13.010Z,1010.07
2018-05-15T07:14:14.402Z,1010.02
2018-05-15T07:15:15.816Z,1009.96
2018-05-15T07:16:17.215Z,1009.93
2018-05-15T07:17:18.629Z,1009.94
2018-05-15T07:18:20.024Z,1009.95
2018-05-15T07:19:21.450Z,1010.03
2018-05-15T07:20:22.875Z,1010.00
2018-05-15T07:21:24.278Z,1010.03
2018-05-15T07:22:25.679Z,1010.14
2018-05-15T07:23:27.085Z,1010.18
2018-05-15T07:24:29.369Z,1010.13
2018-05-15T07:25:30.782Z,1010.14
2018-05-15T07:26:32.199Z,1010.15
2018-05-15T07:27:33.603Z,1010.13
2018-05-15T07:28:35.001Z,1010.15
2018-05-15T07:29:36.435Z,1010.14
2018-05-15T07:30:37.824Z,1010.13
2018-05-15T07:31:39.248Z,1010.15
2018-05-15T07:32:40.648Z,1010.05
2018-05-15T07:33:42.053Z,1010.11
2018-05-15T07:34:43.470Z,1010.13
2018-05-15T07:35:45.379Z,1010.18
2018-05-15T07:36:46.780Z,1010.11
2018-05-15T07:37:48.198Z,1010.05
2018-05-15T07:38:49.622Z,1010.03
2018-05-15T07:39:51.022Z,1010.09
2018-05-15T07:40:52.433Z,1010.20
2018-05-15T07:41:53.858Z,1010.09
2018-05-15T07:42:55.266Z,1010.00
2018-05-15T07:43:56.680Z,1009.95
2018-05-15T07:44:58.068Z,1009.99
2018-05-15T07:45:59.479Z,1009.96
2018-05-15T07:47:00.950Z,1009.91
2018-05-15T07:48:02.349Z,1009.92
2018-05-15T07:49:03.751Z,1009.95
2018-05-15T07:50:05.169Z,1010.12
2018-05-15T07:51:06.580Z,1010.04
2018-05-15T07:52:08.746Z,1010.13
2018-05-15T07:53:10.163Z,1010.12
2018-05-15T07:54:11.572Z,1010.03
2018-05-15T07:55:12.990Z,1010.00
2018-05-15T07:56:14.390Z,1009.99
2018-05-15T07:57:15.837Z,1010.22
2018-05-15T07:58:17.194Z,1010.28
2018-05-15T07:59:18.595Z,1010.37
2018-05-15T08:00:20.014Z,1010.26
2018-05-15T08:01:21.405Z,1010.47
2018-05-15T08:02:22.818Z,1010.15
2018-05-15T08:03:24.225Z,1010.29
2018-05-15T08:04:25.702Z,1010.28
2018-05-15T08:05:27.001Z,1010.12
2018-05-15T08:06:28.411Z,1010.26
2018-05-15T08:07:29.827Z,1010.13
2018-05-15T08:08:31.223Z,1010.12
2018-05-15T08:09:32.645Z,1010.16
2018-05-15T08:10:34.047Z,1010.22
2018-05-15T08:11:35.444Z,1010.13
2018-05-15T08:12:36.857Z,1010.09
2018-05-15T08:13:38.280Z,1010.09
2018-05-15T08:14:39.688Z,1010.07
2018-05-15T08:15:41.093Z,1010.20
2018-05-15T08:16:42.503Z,1010.29
2018-05-15T08:17:43.908Z,1010.15
2018-05-15T08:18:45.313Z,1010.12
2018-05-15T08:19:46.747Z,1010.14
2018-05-15T08:20:48.156Z,1010.10
2018-05-15T08:21:49.573Z,1010.17
2018-05-15T08:22:50.978Z,1010.12
2018-05-15T08:23:52.406Z,1010.07
2018-05-15T08:24:53.812Z,1010.13
2018-05-15T08:25:55.949Z,1010.08
2018-05-15T08:26:57.348Z,1010.08
2018-05-15T08:27:58.754Z,1010.13
2018-05-15T08:29:00.213Z,1010.16
2018-05-15T08:30:01.612Z,1010.19
2018-05-15T08:31:03.032Z,1010.21
2018-05-15T08:32:04.450Z,1010.26
2018-05-15T08:33:05.870Z,1010.23
2018-05-15T08:34:07.262Z,1010.13
2018-05-15T08:35:08.685Z,1010.17
2018-05-15T08:36:10.086Z,1010.25
2018-05-15T08:37:11.490Z,1010.24
2018-05-15T08:38:12.908Z,1010.29
2018-05-15T08:39:14.324Z,1010.13
2018-05-15T08:40:15.731Z,1010.17
2018-05-15T08:41:17.128Z,1010.23
2018-05-15T08:42:18.545Z,1010.11
2018-05-15T08:43:19.964Z,1010.13
2018-05-15T08:44:21.379Z,1010.18
2018-05-15T08:45:22.835Z,1010.09
2018-05-15T08:46:24.199Z,1010.22
2018-05-15T08:47:25.610Z,1010.25
2018-05-15T08:48:27.021Z,1010.32
2018-05-15T08:49:28.425Z,1010.31
2018-05-15T08:50:29.871Z,1010.38
2018-05-15T08:51:31.353Z,1010.39
2018-05-15T08:52:32.687Z,1010.31
2018-05-15T08:53:34.094Z,1010.27
2018-05-15T08:54:35.509Z,1010.24
2018-05-15T08:55:36.917Z,1010.26
2018-05-15T08:56:38.323Z,1010.23
2018-05-15T08:57:39.742Z,1010.23
2018-05-15T08:58:41.148Z,1010.26
2018-05-15T08:59:42.560Z,1010.17
2018-05-15T09:00:43.957Z,1010.12
2018-05-15T09:01:45.381Z,1010.15
2018-05-15T09:02:46.796Z,1010.15
2018-05-15T09:03:48.201Z,1010.15
2018-05-15T09:04:49.624Z,1010.18
2018-05-15T09:05:51.037Z,1010.14
2018-05-15T09:06:52.436Z,1010.07
2018-05-15T09:07:53.863Z,1010.08
2018-05-15T09:08:55.266Z,1010.14
2018-05-15T09:09:56.684Z,1010.17
2018-05-15T09:10:58.753Z,1010.18
2018-05-15T09:11:59.456Z,1010.15
2018-05-15T09:13:00.862Z,1010.10
2018-05-15T09:14:02.274Z,1010.07
2018-05-15T09:15:03.697Z,1010.13
2018-05-15T09:16:05.109Z,1010.07
2018-05-15T09:17:06.522Z,1010.05
2018-05-15T09:18:07.923Z,1009.97
2018-05-15T09:19:09.352Z,1010.02
2018-05-15T09:20:10.753Z,1010.02
2018-05-15T09:21:12.178Z,1009.98
2018-05-15T09:22:13.589Z,1009.98
2018-05-15T09:23:14.999Z,1009.92
2018-05-15T09:24:16.413Z,1009.94
2018-05-15T09:25:17.823Z,1009.94
2018-05-15T09:26:19.235Z,1009.97
2018-05-15T09:27:20.665Z,1009.96
2018-05-15T09:28:22.088Z,1009.92
2018-05-15T09:29:23.529Z,1009.91
2018-05-15T09:30:24.947Z,1010.00
2018-05-15T09:31:26.349Z,1010.04
2018-05-15T09:32:28.633Z,1009.99
2018-05-15T09:33:30.051Z,1010.04
2018-05-15T09:34:31.468Z,1009.95
2018-05-15T09:35:32.876Z,1009.92
2018-05-15T09:36:34.302Z,1010.00
2018-05-15T09:37:35.706Z,1009.97
2018-05-15T09:38:37.129Z,1009.98
2018-05-15T09:39:38.564Z,1009.88
2018-05-15T09:40:39.964Z,1009.93
2018-05-15T09:41:41.386Z,1009.89
2018-05-15T09:42:42.817Z,1009.86
2018-05-15T09:43:44.236Z,1009.84
2018-05-15T09:44:45.658Z,1009.81
2018-05-15T09:45:47.062Z,1009.77
2018-05-15T09:46:48.474Z,1009.80
2018-05-15T09:47:49.905Z,1009.83
2018-05-15T09:48:51.330Z,1009.84
2018-05-15T09:49:52.737Z,1009.89
2018-05-15T09:50:54.156Z,1009.86
2018-05-15T09:51:55.577Z,1009.86
2018-05-15T09:52:57.012Z,1009.77
2018-05-15T09:53:58.437Z,1009.86
2018-05-15T09:54:59.893Z,1009.79
2018-05-15T09:56:01.308Z,1009.82
2018-05-15T09:57:02.716Z,1009.77
2018-05-15T09:58:04.929Z,1009.71
2018-05-15T09:59:06.361Z,1009.67
2018-05-15T10:00:07.783Z,1009.63
2018-05-15T10:01:09.193Z,1009.67
2018-05-15T10:02:10.590Z,1009.60
2018-05-15T10:03:12.016Z,1009.61
2018-05-15T10:04:13.408Z,1009.56
2018-05-15T10:05:14.838Z,1009.54
2018-05-15T10:06:16.260Z,1009.58
2018-05-15T10:07:17.662Z,1009.60
2018-05-15T10:08:19.069Z,1009.59
2018-05-15T10:09:20.484Z,1009.54
2018-05-15T10:10:21.884Z,1009.52
2018-05-15T10:11:23.296Z,1009.55
2018-05-15T10:12:24.720Z,1009.50
2018-05-15T10:13:26.114Z,1009.41
2018-05-15T10:14:27.523Z,1009.44
2018-05-15T10:15:28.936Z,1009.48
2018-05-15T10:16:30.336Z,1009.48
2018-05-15T10:17:31.735Z,1009.44
2018-05-15T10:18:33.141Z,1009.42
2018-05-15T10:19:34.540Z,1009.37
2018-05-15T10:20:35.948Z,1009.43
2018-05-15T10:21:37.361Z,1009.38
2018-05-15T10:22:38.767Z,1009.38
2018-05-15T10:23:40.167Z,1009.33
2018-05-15T10:24:41.562Z,1009.31
2018-05-15T10:25:42.972Z,1009.35
2018-05-15T10:26:44.369Z,1009.34
2018-05-15T10:27:45.770Z,1009.24
2018-05-15T10:28:47.192Z,1009.28
2018-05-15T10:29:48.643Z,1009.31
2018-05-15T10:30:50.775Z,1009.20
2018-05-15T10:31:52.175Z,1009.22
2018-05-15T10:32:53.586Z,1009.25
2018-05-15T10:33:55.016Z,1009.29
2018-05-15T10:34:56.410Z,1009.23
2018-05-15T10:35:57.833Z,1009.23
2018-05-15T10:36:59.268Z,1009.21
2018-05-15T10:38:01.312Z,1009.23
2018-05-15T10:39:01.981Z,1009.28
2018-05-15T10:40:03.390Z,1009.21
2018-05-15T10:41:04.794Z,1009.23
2018-05-15T10:42:06.199Z,1009.13
2018-05-15T10:43:07.610Z,1009.18
2018-05-15T10:44:09.013Z,1009.17
2018-05-15T10:45:10.423Z,1009.25
2018-05-15T10:46:11.835Z,1009.19
2018-05-15T10:47:13.229Z,1009.22
2018-05-15T10:48:15.347Z,1009.13
2018-05-15T10:49:16.750Z,1009.17
2018-05-15T10:50:18.155Z,1009.20
2018-05-15T10:51:19.558Z,1009.04
2018-05-15T10:52:20.953Z,1009.08
2018-05-15T10:53:22.360Z,1009.01
2018-05-15T10:54:23.761Z,1009.07
2018-05-15T10:55:25.176Z,1009.03
2018-05-15T10:56:26.572Z,1009.00
2018-05-15T10:57:27.976Z,1009.13
2018-05-15T10:58:29.378Z,1009.17
2018-05-15T10:59:30.855Z,1009.11
2018-05-15T11:00:32.214Z,1009.14
2018-05-15T11:01:33.624Z,1009.13
2018-05-15T11:02:35.027Z,1009.12
2018-05-15T11:03:36.441Z,1009.05
2018-05-15T11:04:37.851Z,1009.07
2018-05-15T11:05:39.251Z,1009.05
2018-05-15T11:06:40.660Z,1009.02
2018-05-15T11:07:42.070Z,1008.99
2018-05-15T11:08:43.470Z,1009.00
2018-05-15T11:09:44.887Z,1009.03
2018-05-15T11:10:46.290Z,1009.00
2018-05-15T11:11:47.713Z,1009.01
2018-05-15T11:12:49.168Z,1009.03
2018-05-15T11:13:50.569Z,1008.96
2018-05-15T11:14:51.993Z,1008.96
2018-05-15T11:15:53.389Z,1009.03
2018-05-15T11:16:54.795Z,1009.00
2018-05-15T11:17:56.203Z,1009.02
2018-05-15T11:18:57.606Z,1009.02
2018-05-15T11:19:59.009Z,1008.95
2018-05-15T11:21:00.407Z,1009.04
2018-05-15T11:22:01.824Z,1008.99
2018-05-15T11:23:03.232Z,1008.99
2018-05-15T11:24:04.650Z,1008.92
2018-05-15T11:25:06.051Z,1008.89
2018-05-15T11:26:07.460Z,1008.88
2018-05-15T11:27:08.882Z,1008.87
2018-05-15T11:28:10.301Z,1008.87
2018-05-15T11:29:11.683Z,1008.86
2018-05-15T11:30:13.104Z,1008.78
2018-05-15T11:31:14.508Z,1008.84
2018-05-15T11:32:15.918Z,1008.79
2018-05-15T11:33:17.325Z,1008.78
2018-05-15T11:34:18.728Z,1008.83
2018-05-15T11:35:20.133Z,1008.65
2018-05-15T11:36:21.555Z,1008.73
2018-05-15T11:37:22.961Z,1008.82
2018-05-15T11:38:24.367Z,1008.71
2018-05-15T11:39:25.764Z,1008.66
2018-05-15T11:40:27.202Z,1008.66
2018-05-15T11:41:28.639Z,1008.68
2018-05-15T11:42:30.019Z,1008.78
2018-05-15T11:43:31.426Z,1008.78
2018-05-15T11:44:32.823Z,1008.75
2018-05-15T11:45:34.222Z,1008.71
2018-05-15T11:46:36.415Z,1008.67
2018-05-15T11:47:37.967Z,1008.75
2018-05-15T11:48:39.588Z,1008.70
2018-05-15T11:49:41.780Z,1008.66
2018-05-15T11:50:42.627Z,1008.62
2018-05-15T11:51:43.986Z,1008.63
2018-05-15T11:52:44.993Z,1008.47
2018-05-15T11:53:46.096Z,1008.53
2018-05-15T11:54:47.493Z,1008.67
2018-05-15T11:55:48.930Z,1008.66
2018-05-15T11:56:50.318Z,1008.56
2018-05-15T11:57:51.761Z,1008.62
2018-05-15T11:58:53.136Z,1008.56
2018-05-15T11:59:54.572Z,1008.60
2018-05-15T12:00:55.944Z,1008.61
2018-05-15T12:01:57.346Z,1008.53
2018-05-15T12:02:58.748Z,1008.53
2018-05-15T12:04:00.234Z,1008.48
2018-05-15T12:05:01.565Z,1008.57
2018-05-15T12:06:02.974Z,1008.55
2018-05-15T12:07:04.389Z,1008.49
2018-05-15T12:08:05.854Z,1008.48
2018-05-15T12:09:07.205Z,1008.44
2018-05-15T12:10:08.607Z,1008.42
2018-05-15T12:11:10.008Z,1008.44
2018-05-15T12:12:11.411Z,1008.37
2018-05-15T12:13:12.826Z,1008.40
2018-05-15T12:14:14.237Z,1008.39
2018-05-15T12:15:15.657Z,1008.37
2018-05-15T12:16:17.068Z,1008.31
2018-05-15T12:17:18.481Z,1008.26
2018-05-15T12:18:19.916Z,1008.39
2018-05-15T12:19:21.302Z,1008.27
2018-05-15T12:20:22.789Z,1008.34
2018-05-15T12:21:24.078Z,1008.30
2018-05-15T12:22:26.236Z,1008.35